This is the latest recevied weather packets stored in our database for station/object F4AMY-13. If no packets are shown the sender has not sent any weather packets the latest 10 day(s).
| Time | Temp. | Humidity | Pressure | Rain* | Wind** | Luminosity | Snow |
|---|---|---|---|---|---|---|---|
| 1777303265 | 26.67° C | 53% | 1015 hPa | 0 mm | 167.19 m/s, ° | 374 W/m² | - |
| 1777302965 | 26.67° C | 54% | 1015 hPa | 0 mm | 169.43 m/s, ° | 379 W/m² | - |
| 1777302665 | 26.67° C | 52% | 1015.1 hPa | 0 mm | 172.11 m/s, ° | 385 W/m² | - |
| 1777302365 | 26.67° C | 50% | 1015 hPa | 0 mm | 176.13 m/s, ° | 394 W/m² | - |
| 1777302065 | 27.22° C | 49% | 1015.2 hPa | 0 mm | 178.82 m/s, ° | 400 W/m² | - |
| 1777301765 | 27.22° C | 50% | 1015.4 hPa | 0 mm | 180.16 m/s, ° | 403 W/m² | - |
| 1777301465 | 27.22° C | 51% | 1015.1 hPa | 0 mm | 181.95 m/s, ° | 407 W/m² | - |
| 1777301165 | 27.22° C | 51% | 1015.1 hPa | 0 mm | 181.95 m/s, ° | 407 W/m² | - |
| 1777300865 | 27.22° C | 49% | 1015.3 hPa | 0 mm | 183.29 m/s, ° | 410 W/m² | - |
| 1777300565 | 26.67° C | 48% | 1015.3 hPa | 0 mm | 188.65 m/s, ° | 422 W/m² | - |
| 1777300265 | 26.67° C | 48% | 1015.3 hPa | 0 mm | 189.54 m/s, ° | 424 W/m² | - |
| 1777299965 | 26.67° C | 51% | 1015.3 hPa | 0 mm | 189.54 m/s, ° | 424 W/m² | - |
| 1777299665 | 26.67° C | 49% | 1015.6 hPa | 0 mm | 190.44 m/s, ° | 426 W/m² | - |
| 1777299365 | 26.11° C | 50% | 1015.4 hPa | 0 mm | 191.78 m/s, ° | 429 W/m² | - |
| 1777299064 | 26.67° C | 51% | 1015.5 hPa | 0 mm | 193.12 m/s, ° | 432 W/m² | - |
| 1777298764 | 26.67° C | 52% | 1015.6 hPa | 0 mm | 194.02 m/s, ° | 434 W/m² | - |
| 1777298464 | 26.67° C | 51% | 1015.5 hPa | 0 mm | 194.46 m/s, ° | 435 W/m² | - |
| 1777298164 | 26.67° C | 52% | 1015.7 hPa | 0 mm | 195.8 m/s, ° | 438 W/m² | - |
| 1777297864 | 27.22° C | 50% | 1015.6 hPa | 0 mm | 198.93 m/s, ° | 445 W/m² | - |
| 1777297564 | 27.22° C | 51% | 1015.8 hPa | 0 mm | 204.3 m/s, ° | 457 W/m² | - |
| 1777297264 | 27.22° C | 49% | 1015.7 hPa | 0 mm | 203.85 m/s, ° | 456 W/m² | - |
| 1777296964 | 27.78° C | 49% | 1015.7 hPa | 0 mm | 203.85 m/s, ° | 456 W/m² | - |
| 1777296664 | 27.78° C | 49% | 1015.8 hPa | 0 mm | 205.64 m/s, ° | 460 W/m² | - |
| 1777296364 | 27.78° C | 50% | 1015.8 hPa | 0 mm | 208.32 m/s, ° | 466 W/m² | - |
| 1777296064 | 27.78° C | 48% | 1015.8 hPa | 0 mm | 210.11 m/s, ° | 470 W/m² | - |
* Rain latest hour (hover to see other rain measurements)
** Current wind speed in m/s (hover to see current wind gust speed)